Meteo Giornale » Osservazioni meteo Italia » Bari-Palese Macchie

ore: 23:50 - Osservazioni Meteo Bari-Palese Macchie
Lat. 41° 8' N Lon. 16° 47' E Alt. 34 metri s.l.m.

sereno Europe/Rome

8 °C

Sereno

Temp. 24 Ore

4 °C

16 °C

Sud

11.1 Km/h

Dew point 4 °C

Umidità 75 %

Visibilità  10 Km

Il sole sorge alle ore 06:34

Il sole tramonta alle ore 17:37

Data e Ora Cielo e Fenomeni T °C DP °C Um. % Pres. hPa Vis. km Vento km/h
Ieri h: 23:50 sereno Sereno 8 4 75 1022 10 S 11.1
Ieri h: 23:20 sereno Sereno 8 4 75 1023 10 S/SO 9.3
Ieri h: 22:50 sereno Sereno 9 5 75 1023 10 SO 11.1
Ieri h: 22:20 sereno Sereno 9 5 75 1023 10 SO 13
Ieri h: 21:50 sereno Sereno 9 4 70 1023 10 SO 11.1
Ieri h: 21:20 sereno Sereno 9 4 70 1023 10 O 7.4
Ieri h: 20:50 sereno Sereno 10 5 71 1023 10 SO 9.3
Ieri h: 20:20 sereno Sereno 9 4 70 1023 10 SO 9.3
Ieri h: 19:50 sereno Sereno 9 4 70 1024 10 N 5.5
Ieri h: 19:20 sereno Sereno 10 3 61 1024 10 N 3.7
Ieri h: 18:50 sereno Sereno 10 3 61 1024 10 S/SO 7.4
Ieri h: 18:20 sereno Sereno 11 2 53 1024 10 N 5.5
Ieri h: 17:50 sereno Sereno 12 2 50 1024 10 N 3.7
Ieri h: 17:20 sereno Sereno 13 3 50 1025 10 N 5.5
Ieri h: 16:50 sereno Sereno 14 3 47 1024 10 N 5.5
Ieri h: 16:20 sereno Sereno 13 4 54 1024 10 E/NE 11.1
Ieri h: 15:50 sereno Sereno 13 4 54 1024 10 E 11.1
Ieri h: 15:20 sereno Sereno 14 3 47 1024 10 E/NE 13
Ieri h: 14:50 sereno Sereno 15 4 47 1025 10 E 13
Ieri h: 14:20 sereno Sereno 15 -0 35 1025 10 E/NE 9.3
Ieri h: 13:50 sereno Sereno 15 2 41 1025 10 E/NE 9.3
Ieri h: 13:20 sereno Sereno 16 1 36 1026 10 N/NE 9.3
Ieri h: 12:50 sereno Sereno 16 0 33 1026 10 N/NE 7.4
Ieri h: 12:20 sereno Sereno 16 -1 31 1027 10 N 9.3
Ieri h: 11:20 sereno Sereno 15 -1 33 1028 10 N 5.5
Ieri h: 10:50 sereno Sereno 14 0 38 1028 10 NO 7.4
Ieri h: 10:20 sereno Sereno 14 -1 35 1029 10 N/NO 7.4
Ieri h: 09:50 sereno Sereno 14 -2 32 1029 10 NO 7.4
Ieri h: 09:20 sereno Sereno 13 -1 37 1029 10 N 5.5
Ieri h: 08:50 sereno Sereno 11 -0 46 1029 10 N 3.7
Ieri h: 08:20 sereno Sereno 9 1 57 1029 10 N 1.8
Ieri h: 07:50 sereno Sereno 7 -0 60 1029 10 N 1.8
Ieri h: 07:20 sereno Sereno 6 -2 56 1029 10 O 7.4
Ieri h: 06:50 sereno Sereno 4 -2 64 1029 10 SO 11.1
Ieri h: 06:20 sereno Sereno 5 -2 60 1028 10 SO 11.1
Ieri h: 05:50 sereno Sereno 4 -1 69 1028 10 SO 11.1
Ieri h: 04:50 sereno Sereno 5 -1 65 1028 10 SO 9.3
Ieri h: 04:20 sereno Sereno 5 -1 65 1028 10 O/SO 11.1
Ieri h: 03:20 sereno Sereno 5 0 70 1029 10 O/SO 11.1
Ieri h: 02:50 sereno Sereno 5 0 70 1030 10 O/SO 13
Ieri h: 01:50 sereno Sereno 6 1 70 1031 10 O/SO 13
Ieri h: 01:20 sereno Sereno 6 1 70 1031 10 O/SO 14.8
Ieri h: 00:50 sereno Sereno 6 1 70 1031 10 O/SO 14.8
Ieri h: 00:20 sereno Sereno 6 0 65 1031 10 O/SO 14.8
Ieri h: 23:50 sereno Sereno 6 0 65 1031 10 O/SO 14.8